sensor_id;sensor_type;location;lat;lon;timestamp;pressure;altitude;pressure_sealevel;temperature;humidity
56831;BME280;42713;42.676;23.352;2022-09-09T00:05:28;94995.84;;;20.74;58.79
56831;BME280;42713;42.676;23.352;2022-09-09T00:07:52;94988.47;;;20.71;58.67
56831;BME280;42713;42.676;23.352;2022-09-09T00:10:23;95003.06;;;20.74;59.05
56831;BME280;42713;42.676;23.352;2022-09-09T00:13:13;94997.13;;;20.63;59.10
56831;BME280;42713;42.676;23.352;2022-09-09T00:16:00;94994.41;;;20.54;59.94
56831;BME280;42713;42.676;23.352;2022-09-09T00:21:35;94994.50;;;20.49;59.76
56831;BME280;42713;42.676;23.352;2022-09-09T00:24:09;94987.31;;;20.49;59.62
56831;BME280;42713;42.676;23.352;2022-09-09T00:26:40;94974.97;;;20.53;59.22
56831;BME280;42713;42.676;23.352;2022-09-09T00:31:34;94960.34;;;20.42;59.82
56831;BME280;42713;42.676;23.352;2022-09-09T00:34:23;94966.75;;;20.41;60.10
56831;BME280;42713;42.676;23.352;2022-09-09T00:36:52;94967.13;;;20.34;60.29
56831;BME280;42713;42.676;23.352;2022-09-09T00:39:37;94970.28;;;20.36;60.20
56831;BME280;42713;42.676;23.352;2022-09-09T00:50:00;94954.75;;;20.16;61.63
56831;BME280;42713;42.676;23.352;2022-09-09T00:55:40;94959.09;;;20.12;60.80
56831;BME280;42713;42.676;23.352;2022-09-09T00:58:09;94956.41;;;20.12;61.01
56831;BME280;42713;42.676;23.352;2022-09-09T01:00:44;94958.13;;;20.08;61.26
56831;BME280;42713;42.676;23.352;2022-09-09T01:11:05;94952.31;;;20.05;60.95
56831;BME280;42713;42.676;23.352;2022-09-09T01:13:35;94953.19;;;20.01;61.14
56831;BME280;42713;42.676;23.352;2022-09-09T01:16:04;94952.50;;;19.95;61.35
56831;BME280;42713;42.676;23.352;2022-09-09T01:18:40;94961.25;;;19.96;60.99
56831;BME280;42713;42.676;23.352;2022-09-09T01:26:44;94957.47;;;19.83;61.70
56831;BME280;42713;42.676;23.352;2022-09-09T01:29:13;94954.13;;;19.77;61.46
56831;BME280;42713;42.676;23.352;2022-09-09T01:31:58;94949.44;;;19.74;61.63
56831;BME280;42713;42.676;23.352;2022-09-09T01:34:29;94959.19;;;19.79;61.31
56831;BME280;42713;42.676;23.352;2022-09-09T01:39:30;94972.16;;;19.66;62.11
56831;BME280;42713;42.676;23.352;2022-09-09T01:41:56;94975.38;;;19.63;62.11
56831;BME280;42713;42.676;23.352;2022-09-09T01:44:23;94969.75;;;19.65;61.70
56831;BME280;42713;42.676;23.352;2022-09-09T01:46:49;94965.56;;;19.64;61.20
56831;BME280;42713;42.676;23.352;2022-09-09T01:49:16;94967.72;;;19.75;60.38
56831;BME280;42713;42.676;23.352;2022-09-09T01:51:43;94975.00;;;19.70;61.10
56831;BME280;42713;42.676;23.352;2022-09-09T01:54:09;94975.59;;;19.67;61.54
56831;BME280;42713;42.676;23.352;2022-09-09T02:04:43;94978.31;;;19.48;61.25
56831;BME280;42713;42.676;23.352;2022-09-09T02:09:43;94966.34;;;19.31;62.65
56831;BME280;42713;42.676;23.352;2022-09-09T02:12:13;94972.53;;;19.26;62.59
56831;BME280;42713;42.676;23.352;2022-09-09T02:14:42;94976.50;;;19.29;62.34
56831;BME280;42713;42.676;23.352;2022-09-09T02:17:13;94962.72;;;19.27;62.42
56831;BME280;42713;42.676;23.352;2022-09-09T02:19:46;94959.66;;;19.20;63.57
56831;BME280;42713;42.676;23.352;2022-09-09T02:22:17;94947.94;;;19.21;63.32
56831;BME280;42713;42.676;23.352;2022-09-09T02:24:44;94954.34;;;19.20;62.97
56831;BME280;42713;42.676;23.352;2022-09-09T02:27:12;94949.66;;;19.31;62.08
56831;BME280;42713;42.676;23.352;2022-09-09T02:29:41;94959.56;;;19.25;62.40
56831;BME280;42713;42.676;23.352;2022-09-09T02:32:14;94958.09;;;19.19;62.96
56831;BME280;42713;42.676;23.352;2022-09-09T02:34:44;94971.78;;;19.07;63.61
56831;BME280;42713;42.676;23.352;2022-09-09T02:37:12;94963.94;;;19.02;63.59
56831;BME280;42713;42.676;23.352;2022-09-09T02:39:40;94968.22;;;18.97;64.05
56831;BME280;42713;42.676;23.352;2022-09-09T02:42:06;94970.22;;;19.06;62.95
56831;BME280;42713;42.676;23.352;2022-09-09T02:44:33;94970.88;;;18.97;63.75
56831;BME280;42713;42.676;23.352;2022-09-09T02:55:54;94983.69;;;18.95;62.60
56831;BME280;42713;42.676;23.352;2022-09-09T02:58:22;94967.16;;;18.79;62.77
56831;BME280;42713;42.676;23.352;2022-09-09T03:00:50;94975.69;;;18.76;62.64
56831;BME280;42713;42.676;23.352;2022-09-09T03:03:16;94971.16;;;18.58;64.00
56831;BME280;42713;42.676;23.352;2022-09-09T03:05:44;94979.78;;;18.49;64.70
56831;BME280;42713;42.676;23.352;2022-09-09T03:08:09;94979.78;;;18.49;65.16
56831;BME280;42713;42.676;23.352;2022-09-09T03:10:35;94987.94;;;18.53;64.50
56831;BME280;42713;42.676;23.352;2022-09-09T03:13:02;94985.84;;;18.50;64.80
56831;BME280;42713;42.676;23.352;2022-09-09T03:15:31;94984.00;;;18.50;64.58
56831;BME280;42713;42.676;23.352;2022-09-09T03:17:57;94989.44;;;18.59;63.80
56831;BME280;42713;42.676;23.352;2022-09-09T03:20:24;94983.94;;;18.56;63.64
56831;BME280;42713;42.676;23.352;2022-09-09T03:22:52;94986.28;;;18.57;64.39
56831;BME280;42713;42.676;23.352;2022-09-09T03:25:18;94977.97;;;18.45;64.83
56831;BME280;42713;42.676;23.352;2022-09-09T03:27:44;94976.91;;;18.46;65.02
56831;BME280;42713;42.676;23.352;2022-09-09T03:30:10;94981.91;;;18.47;65.20
56831;BME280;42713;42.676;23.352;2022-09-09T03:32:36;94983.56;;;18.43;64.86
56831;BME280;42713;42.676;23.352;2022-09-09T03:35:02;94985.00;;;18.35;65.89
56831;BME280;42713;42.676;23.352;2022-09-09T03:37:28;94988.63;;;18.40;65.31
56831;BME280;42713;42.676;23.352;2022-09-09T03:39:53;94980.75;;;18.34;65.33
56831;BME280;42713;42.676;23.352;2022-09-09T03:42:21;94978.25;;;18.43;64.46
56831;BME280;42713;42.676;23.352;2022-09-09T03:44:48;94975.31;;;18.45;64.94
56831;BME280;42713;42.676;23.352;2022-09-09T03:47:16;94976.66;;;18.42;64.88
56831;BME280;42713;42.676;23.352;2022-09-09T03:49:42;94977.25;;;18.39;65.38
56831;BME280;42713;42.676;23.352;2022-09-09T03:52:08;94986.06;;;18.34;65.97
56831;BME280;42713;42.676;23.352;2022-09-09T03:54:34;94981.75;;;18.39;65.38
56831;BME280;42713;42.676;23.352;2022-09-09T03:57:01;94986.50;;;18.42;65.39
56831;BME280;42713;42.676;23.352;2022-09-09T03:59:26;94991.81;;;18.42;65.67
56831;BME280;42713;42.676;23.352;2022-09-09T04:01:52;94986.72;;;18.45;65.20
56831;BME280;42713;42.676;23.352;2022-09-09T04:04:18;94988.63;;;18.40;65.53
56831;BME280;42713;42.676;23.352;2022-09-09T04:06:45;95002.19;;;18.38;65.55
56831;BME280;42713;42.676;23.352;2022-09-09T04:09:11;94999.47;;;18.43;65.33
56831;BME280;42713;42.676;23.352;2022-09-09T04:11:36;95001.63;;;18.41;65.45
56831;BME280;42713;42.676;23.352;2022-09-09T04:14:02;94998.69;;;18.43;65.18
56831;BME280;42713;42.676;23.352;2022-09-09T04:16:29;94994.75;;;18.40;65.36
56831;BME280;42713;42.676;23.352;2022-09-09T04:18:54;94992.34;;;18.39;65.11
56831;BME280;42713;42.676;23.352;2022-09-09T04:21:21;94989.22;;;18.37;65.42
56831;BME280;42713;42.676;23.352;2022-09-09T04:23:46;94989.22;;;18.37;65.57
56831;BME280;42713;42.676;23.352;2022-09-09T04:26:12;94994.53;;;18.37;65.25
56831;BME280;42713;42.676;23.352;2022-09-09T04:28:37;94985.47;;;18.38;65.05
56831;BME280;42713;42.676;23.352;2022-09-09T04:31:08;94989.78;;;18.33;65.58
56831;BME280;42713;42.676;23.352;2022-09-09T04:33:34;94994.78;;;18.35;65.71
56831;BME280;42713;42.676;23.352;2022-09-09T04:36:01;94993.72;;;18.36;65.79
56831;BME280;42713;42.676;23.352;2022-09-09T04:38:26;94992.44;;;18.33;65.71
56831;BME280;42713;42.676;23.352;2022-09-09T04:40:52;95002.75;;;18.35;64.81
56831;BME280;42713;42.676;23.352;2022-09-09T04:43:19;94992.94;;;18.35;65.14
56831;BME280;42713;42.676;23.352;2022-09-09T04:45:47;94992.22;;;18.30;64.33
56831;BME280;42713;42.676;23.352;2022-09-09T04:48:13;95001.63;;;18.41;62.76
56831;BME280;42713;42.676;23.352;2022-09-09T04:50:38;94992.44;;;18.52;62.46
56831;BME280;42713;42.676;23.352;2022-09-09T04:53:05;94994.03;;;18.54;62.92
56831;BME280;42713;42.676;23.352;2022-09-09T04:55:31;94987.66;;;18.55;63.77
56831;BME280;42713;42.676;23.352;2022-09-09T04:57:57;94987.94;;;18.53;64.40
56831;BME280;42713;42.676;23.352;2022-09-09T05:00:24;94983.41;;;18.54;64.90
56831;BME280;42713;42.676;23.352;2022-09-09T05:02:49;94983.06;;;18.60;64.72
56831;BME280;42713;42.676;23.352;2022-09-09T05:05:15;94979.25;;;18.66;64.78
56831;BME280;42713;42.676;23.352;2022-09-09T05:07:40;94976.25;;;18.73;64.30
56831;BME280;42713;42.676;23.352;2022-09-09T05:10:07;94964.84;;;18.73;64.03
56831;BME280;42713;42.676;23.352;2022-09-09T05:12:32;94968.50;;;18.77;64.57
56831;BME280;42713;42.676;23.352;2022-09-09T05:14:58;94960.78;;;18.80;63.82
56831;BME280;42713;42.676;23.352;2022-09-09T05:17:23;94978.97;;;18.87;63.84
56831;BME280;42713;42.676;23.352;2022-09-09T05:19:49;94984.75;;;18.94;63.84
56831;BME280;42713;42.676;23.352;2022-09-09T05:22:21;94983.69;;;18.95;62.88
56831;BME280;42713;42.676;23.352;2022-09-09T05:24:49;94975.91;;;18.99;63.08
56831;BME280;42713;42.676;23.352;2022-09-09T05:27:18;94968.66;;;19.05;62.91
56831;BME280;42713;42.676;23.352;2022-09-09T05:29:45;94963.84;;;19.07;63.14
56831;BME280;42713;42.676;23.352;2022-09-09T05:32:11;94969.06;;;19.12;62.59
56831;BME280;42713;42.676;23.352;2022-09-09T05:34:37;94967.41;;;19.16;63.11
56831;BME280;42713;42.676;23.352;2022-09-09T05:37:03;94966.25;;;19.22;62.48
56831;BME280;42713;42.676;23.352;2022-09-09T05:39:29;94960.84;;;19.27;62.24
56831;BME280;42713;42.676;23.352;2022-09-09T05:41:55;94965.47;;;19.36;62.13
56831;BME280;42713;42.676;23.352;2022-09-09T05:44:20;94965.41;;;19.41;61.33
56831;BME280;42713;42.676;23.352;2022-09-09T05:46:48;94970.16;;;19.44;61.39
56831;BME280;42713;42.676;23.352;2022-09-09T05:49:14;94972.41;;;19.51;61.47
56831;BME280;42713;42.676;23.352;2022-09-09T05:51:41;94978.41;;;19.56;60.99
56831;BME280;42713;42.676;23.352;2022-09-09T05:54:08;94981.50;;;19.64;60.56
56831;BME280;42713;42.676;23.352;2022-09-09T05:56:34;94975.31;;;19.68;60.40
56831;BME280;42713;42.676;23.352;2022-09-09T05:59:00;94977.56;;;19.75;59.68
56831;BME280;42713;42.676;23.352;2022-09-09T06:01:29;94973.91;;;19.71;59.42
56831;BME280;42713;42.676;23.352;2022-09-09T06:03:55;94977.84;;;19.73;60.22
56831;BME280;42713;42.676;23.352;2022-09-09T06:06:24;94981.78;;;19.76;60.82
56831;BME280;42713;42.676;23.352;2022-09-09T06:08:53;94991.84;;;19.79;60.65
56831;BME280;42713;42.676;23.352;2022-09-09T06:11:19;94989.59;;;19.86;59.85
56831;BME280;42713;42.676;23.352;2022-09-09T06:13:45;94993.75;;;19.93;58.72
56831;BME280;42713;42.676;23.352;2022-09-09T06:16:16;94988.72;;;19.91;57.90
56831;BME280;42713;42.676;23.352;2022-09-09T06:18:42;94987.13;;;19.90;58.00
56831;BME280;42713;42.676;23.352;2022-09-09T06:21:31;94988.63;;;19.96;57.72
56831;BME280;42713;42.676;23.352;2022-09-09T06:24:07;94975.44;;;19.91;57.78
56831;BME280;42713;42.676;23.352;2022-09-09T06:26:35;94985.19;;;19.96;56.62
56831;BME280;42713;42.676;23.352;2022-09-09T06:29:02;94993.56;;;20.03;56.93
56831;BME280;42713;42.676;23.352;2022-09-09T06:31:30;94986.56;;;20.07;57.13
56831;BME280;42713;42.676;23.352;2022-09-09T06:33:57;94996.81;;;20.14;56.86
56831;BME280;42713;42.676;23.352;2022-09-09T06:36:32;94983.69;;;20.17;57.14
56831;BME280;42713;42.676;23.352;2022-09-09T06:38:58;94981.41;;;20.25;57.24
56831;BME280;42713;42.676;23.352;2022-09-09T06:41:26;94972.84;;;20.28;56.51
56831;BME280;42713;42.676;23.352;2022-09-09T06:43:52;94977.59;;;20.31;55.29
56831;BME280;42713;42.676;23.352;2022-09-09T06:46:28;94977.47;;;20.36;55.10
56831;BME280;42713;42.676;23.352;2022-09-09T06:48:56;94972.06;;;20.41;55.74
56831;BME280;42713;42.676;23.352;2022-09-09T06:51:31;94976.19;;;20.47;55.47
56831;BME280;42713;42.676;23.352;2022-09-09T06:53:59;94995.47;;;20.53;55.51
56831;BME280;42713;42.676;23.352;2022-09-09T06:56:30;94996.66;;;20.61;54.66
56831;BME280;42713;42.676;23.352;2022-09-09T06:58:57;94990.91;;;20.67;53.35
56831;BME280;42713;42.676;23.352;2022-09-09T07:01:34;94991.91;;;20.72;53.76
56831;BME280;42713;42.676;23.352;2022-09-09T07:04:01;94991.50;;;20.78;53.69
56831;BME280;42713;42.676;23.352;2022-09-09T07:06:33;94997.50;;;20.84;52.42
56831;BME280;42713;42.676;23.352;2022-09-09T07:09:11;94999.56;;;20.87;51.46
56831;BME280;42713;42.676;23.352;2022-09-09T07:11:39;94990.19;;;20.90;51.80
56831;BME280;42713;42.676;23.352;2022-09-09T07:14:06;94985.25;;;20.97;52.43
56831;BME280;42713;42.676;23.352;2022-09-09T07:16:32;94989.66;;;21.02;52.61
56831;BME280;42713;42.676;23.352;2022-09-09T07:18:58;94986.56;;;21.08;52.68
56831;BME280;42713;42.676;23.352;2022-09-09T07:21:26;94983.00;;;21.13;52.17
56831;BME280;42713;42.676;23.352;2022-09-09T07:23:53;94995.59;;;21.21;52.54
56831;BME280;42713;42.676;23.352;2022-09-09T07:26:23;94986.69;;;21.26;52.17
56831;BME280;42713;42.676;23.352;2022-09-09T07:28:49;94987.34;;;21.32;52.16
56831;BME280;42713;42.676;23.352;2022-09-09T07:31:20;94981.88;;;21.37;51.94
56831;BME280;42713;42.676;23.352;2022-09-09T07:33:46;94973.19;;;21.45;51.89
56831;BME280;42713;42.676;23.352;2022-09-09T07:36:15;94973.22;;;21.54;51.82
56831;BME280;42713;42.676;23.352;2022-09-09T07:38:43;94973.59;;;21.61;51.25
56831;BME280;42713;42.676;23.352;2022-09-09T07:41:13;94969.41;;;21.69;51.33
56831;BME280;42713;42.676;23.352;2022-09-09T07:43:42;94974.28;;;21.75;50.79
56831;BME280;42713;42.676;23.352;2022-09-09T07:46:09;94987.97;;;21.83;50.32
56831;BME280;42713;42.676;23.352;2022-09-09T07:48:36;94985.34;;;21.91;49.78
56831;BME280;42713;42.676;23.352;2022-09-09T07:51:07;94981.31;;;22.03;48.89
56831;BME280;42713;42.676;23.352;2022-09-09T07:53:34;94983.97;;;22.12;49.26
56831;BME280;42713;42.676;23.352;2022-09-09T07:56:10;94988.91;;;22.27;49.64
56831;BME280;42713;42.676;23.352;2022-09-09T07:58:37;94988.00;;;22.41;48.86
56831;BME280;42713;42.676;23.352;2022-09-09T08:01:30;94984.44;;;22.54;48.22
56831;BME280;42713;42.676;23.352;2022-09-09T08:04:04;94970.78;;;22.64;48.03
56831;BME280;42713;42.676;23.352;2022-09-09T08:06:38;94972.66;;;22.73;46.96
56831;BME280;42713;42.676;23.352;2022-09-09T08:09:05;94978.31;;;22.80;47.09
56831;BME280;42713;42.676;23.352;2022-09-09T08:11:32;94977.53;;;22.88;47.53
56831;BME280;42713;42.676;23.352;2022-09-09T08:13:59;94981.78;;;22.98;47.33
56831;BME280;42713;42.676;23.352;2022-09-09T08:16:27;94971.41;;;23.05;47.44
56831;BME280;42713;42.676;23.352;2022-09-09T08:18:53;94973.28;;;23.13;47.24
56831;BME280;42713;42.676;23.352;2022-09-09T08:21:22;94972.53;;;23.22;46.68
56831;BME280;42713;42.676;23.352;2022-09-09T08:23:50;94971.72;;;23.30;46.75
56831;BME280;42713;42.676;23.352;2022-09-09T08:26:22;94967.28;;;23.43;47.24
56831;BME280;42713;42.676;23.352;2022-09-09T08:28:50;94967.91;;;23.49;46.62
56831;BME280;42713;42.676;23.352;2022-09-09T08:31:28;94968.81;;;23.61;46.78
56831;BME280;42713;42.676;23.352;2022-09-09T08:33:55;94963.75;;;23.69;46.82
56831;BME280;42713;42.676;23.352;2022-09-09T08:36:23;94962.16;;;23.76;46.49
56831;BME280;42713;42.676;23.352;2022-09-09T08:38:50;94964.19;;;23.80;46.56
56831;BME280;42713;42.676;23.352;2022-09-09T08:54:50;94956.06;;;24.06;46.26
56831;BME280;42713;42.676;23.352;2022-09-09T08:57:23;94946.28;;;24.10;46.12
56831;BME280;42713;42.676;23.352;2022-09-09T08:59:53;94957.28;;;24.17;45.97
56831;BME280;42713;42.676;23.352;2022-09-09T09:05:19;94950.28;;;24.34;45.61
56831;BME280;42713;42.676;23.352;2022-09-09T09:10:46;94948.31;;;24.43;45.98
56831;BME280;42713;42.676;23.352;2022-09-09T09:14:07;94956.47;;;24.47;45.89
56831;BME280;42713;42.676;23.352;2022-09-09T09:16:47;94950.41;;;24.59;45.58
56831;BME280;42713;42.676;23.352;2022-09-09T09:19:15;94952.91;;;24.64;44.15
56831;BME280;42713;42.676;23.352;2022-09-09T09:25:02;94941.50;;;24.76;44.75
56831;BME280;42713;42.676;23.352;2022-09-09T09:30:22;94942.66;;;24.87;44.86
56831;BME280;42713;42.676;23.352;2022-09-09T09:32:55;94946.22;;;24.91;44.63
56831;BME280;42713;42.676;23.352;2022-09-09T09:35:22;94945.59;;;24.94;44.71
56831;BME280;42713;42.676;23.352;2022-09-09T09:37:49;94948.38;;;24.98;43.87
56831;BME280;42713;42.676;23.352;2022-09-09T09:40:20;94946.81;;;24.97;43.45
56831;BME280;42713;42.676;23.352;2022-09-09T09:42:58;94941.00;;;24.95;43.98
56831;BME280;42713;42.676;23.352;2022-09-09T09:45:44;94937.78;;;25.01;44.66
56831;BME280;42713;42.676;23.352;2022-09-09T09:48:14;94924.44;;;25.14;44.93
56831;BME280;42713;42.676;23.352;2022-09-09T09:50:57;94928.94;;;25.22;44.06
56831;BME280;42713;42.676;23.352;2022-09-09T09:53:31;94926.06;;;25.27;44.51
56831;BME280;42713;42.676;23.352;2022-09-09T09:56:05;94928.72;;;25.27;46.33
56831;BME280;42713;42.676;23.352;2022-09-09T10:01:23;94920.13;;;25.22;48.80
56831;BME280;42713;42.676;23.352;2022-09-09T10:04:01;94914.94;;;25.16;47.43
56831;BME280;42713;42.676;23.352;2022-09-09T10:06:36;94909.34;;;25.09;48.69
56831;BME280;42713;42.676;23.352;2022-09-09T10:09:17;94921.94;;;25.09;48.89
56831;BME280;42713;42.676;23.352;2022-09-09T10:20:18;94937.63;;;24.85;50.95
56831;BME280;42713;42.676;23.352;2022-09-09T10:22:51;94936.31;;;24.70;48.59
56831;BME280;42713;42.676;23.352;2022-09-09T10:30:23;94929.13;;;24.41;48.41
56831;BME280;42713;42.676;23.352;2022-09-09T10:38:39;94939.56;;;24.34;53.28
56831;BME280;42713;42.676;23.352;2022-09-09T10:44:10;94940.97;;;24.31;53.34
56831;BME280;42713;42.676;23.352;2022-09-09T10:56:59;94934.13;;;24.21;49.66
56831;BME280;42713;42.676;23.352;2022-09-09T10:59:35;94934.59;;;24.23;49.96
56831;BME280;42713;42.676;23.352;2022-09-09T11:02:14;94933.59;;;24.28;51.12
56831;BME280;42713;42.676;23.352;2022-09-09T11:04:53;94943.34;;;24.33;52.19
56831;BME280;42713;42.676;23.352;2022-09-09T11:07:33;94940.97;;;24.31;50.12
56831;BME280;42713;42.676;23.352;2022-09-09T11:10:05;94942.41;;;24.29;51.17
56831;BME280;42713;42.676;23.352;2022-09-09T11:12:34;94940.53;;;24.29;52.55
56831;BME280;42713;42.676;23.352;2022-09-09T11:15:06;94939.56;;;24.34;52.51
56831;BME280;42713;42.676;23.352;2022-09-09T11:17:47;94933.53;;;24.37;52.83
56831;BME280;42713;42.676;23.352;2022-09-09T11:20:15;94928.78;;;24.43;52.09
56831;BME280;42713;42.676;23.352;2022-09-09T11:22:48;94926.34;;;24.50;51.98
56831;BME280;42713;42.676;23.352;2022-09-09T11:25:21;94921.41;;;24.61;52.34
56831;BME280;42713;42.676;23.352;2022-09-09T11:38:29;94900.13;;;24.64;49.49
56831;BME280;42713;42.676;23.352;2022-09-09T11:41:05;94890.00;;;24.70;49.64
56831;BME280;42713;42.676;23.352;2022-09-09T11:43:42;94893.75;;;24.78;50.94
56831;BME280;42713;42.676;23.352;2022-09-09T11:46:09;94883.91;;;24.82;50.64
56831;BME280;42713;42.676;23.352;2022-09-09T11:48:41;94871.09;;;24.88;51.47
56831;BME280;42713;42.676;23.352;2022-09-09T11:54:03;94846.91;;;25.09;51.60
56831;BME280;42713;42.676;23.352;2022-09-09T11:56:45;94849.50;;;25.17;50.87
56831;BME280;42713;42.676;23.352;2022-09-09T11:59:26;94847.84;;;25.25;50.52
56831;BME280;42713;42.676;23.352;2022-09-09T12:04:30;94864.09;;;25.41;50.46
56831;BME280;42713;42.676;23.352;2022-09-09T12:12:36;94859.50;;;25.79;48.47
56831;BME280;42713;42.676;23.352;2022-09-09T12:17:57;94837.22;;;26.03;50.89
56831;BME280;42713;42.676;23.352;2022-09-09T12:20:35;94836.91;;;26.17;48.37
56831;BME280;42713;42.676;23.352;2022-09-09T12:23:21;94837.78;;;26.34;48.88
56831;BME280;42713;42.676;23.352;2022-09-09T12:26:06;94835.91;;;26.50;50.48
56831;BME280;42713;42.676;23.352;2022-09-09T12:28:49;94839.22;;;26.60;48.67
56831;BME280;42713;42.676;23.352;2022-09-09T12:34:06;94828.75;;;26.83;48.25
56831;BME280;42713;42.676;23.352;2022-09-09T12:36:35;94813.31;;;26.96;48.54
56831;BME280;42713;42.676;23.352;2022-09-09T12:39:12;94819.31;;;27.05;48.88
56831;BME280;42713;42.676;23.352;2022-09-09T12:41:51;94817.16;;;27.11;48.43
56831;BME280;42713;42.676;23.352;2022-09-09T12:44:22;94806.00;;;27.09;47.97
56831;BME280;42713;42.676;23.352;2022-09-09T12:46:48;94797.03;;;27.05;47.28
56831;BME280;42713;42.676;23.352;2022-09-09T12:49:34;94810.03;;;27.02;48.21
56831;BME280;42713;42.676;23.352;2022-09-09T12:52:08;94812.56;;;26.95;47.53
56831;BME280;42713;42.676;23.352;2022-09-09T12:54:36;94809.78;;;26.92;48.24
56831;BME280;42713;42.676;23.352;2022-09-09T12:57:03;94795.22;;;26.93;48.78
56831;BME280;42713;42.676;23.352;2022-09-09T12:59:40;94799.81;;;26.92;48.77
56831;BME280;42713;42.676;23.352;2022-09-09T13:02:20;94798.09;;;27.00;48.74
56831;BME280;42713;42.676;23.352;2022-09-09T13:04:47;94788.03;;;27.13;49.15
56831;BME280;42713;42.676;23.352;2022-09-09T13:07:13;94783.00;;;27.27;49.01
56831;BME280;42713;42.676;23.352;2022-09-09T13:09:42;94776.66;;;27.36;48.13
56831;BME280;42713;42.676;23.352;2022-09-09T13:12:14;94781.09;;;27.44;47.48
56831;BME280;42713;42.676;23.352;2022-09-09T13:14:43;94787.34;;;27.48;47.30
56831;BME280;42713;42.676;23.352;2022-09-09T13:17:19;94785.88;;;27.51;47.61
56831;BME280;42713;42.676;23.352;2022-09-09T13:19:46;94780.50;;;27.51;46.14
56831;BME280;42713;42.676;23.352;2022-09-09T13:22:14;94783.94;;;27.51;46.73
56831;BME280;42713;42.676;23.352;2022-09-09T13:24:40;94775.53;;;27.53;46.80
56831;BME280;42713;42.676;23.352;2022-09-09T13:27:26;94769.00;;;27.54;46.87
56831;BME280;42713;42.676;23.352;2022-09-09T13:29:54;94761.38;;;27.56;46.22
56831;BME280;42713;42.676;23.352;2022-09-09T13:32:24;94761.38;;;27.56;46.67
56831;BME280;42713;42.676;23.352;2022-09-09T13:34:58;94763.63;;;27.54;46.34
56831;BME280;42713;42.676;23.352;2022-09-09T13:37:38;94765.03;;;27.47;45.93
56831;BME280;42713;42.676;23.352;2022-09-09T13:40:16;94769.88;;;27.42;46.10
56831;BME280;42713;42.676;23.352;2022-09-09T13:42:44;94757.47;;;27.37;45.79
56831;BME280;42713;42.676;23.352;2022-09-09T13:45:21;94745.00;;;27.29;45.14
56831;BME280;42713;42.676;23.352;2022-09-09T13:47:48;94746.03;;;27.24;46.61
56831;BME280;42713;42.676;23.352;2022-09-09T13:50:29;94739.88;;;27.24;46.19
56831;BME280;42713;42.676;23.352;2022-09-09T13:52:56;94743.06;;;27.29;46.35
56831;BME280;42713;42.676;23.352;2022-09-09T13:55:29;94746.03;;;27.40;46.44
56831;BME280;42713;42.676;23.352;2022-09-09T13:58:02;94734.84;;;27.54;46.16
56831;BME280;42713;42.676;23.352;2022-09-09T14:00:31;94743.63;;;27.71;45.67
56831;BME280;42713;42.676;23.352;2022-09-09T14:02:58;94742.16;;;27.93;46.56
56831;BME280;42713;42.676;23.352;2022-09-09T14:05:25;94744.69;;;28.21;45.77
56831;BME280;42713;42.676;23.352;2022-09-09T14:07:51;94741.81;;;28.53;44.17
56831;BME280;42713;42.676;23.352;2022-09-09T14:10:16;94742.47;;;28.89;44.55
56831;BME280;42713;42.676;23.352;2022-09-09T14:12:42;94737.63;;;29.26;44.08
56831;BME280;42713;42.676;23.352;2022-09-09T14:15:10;94735.84;;;29.60;42.84
56831;BME280;42713;42.676;23.352;2022-09-09T14:17:35;94727.34;;;29.89;42.32
56831;BME280;42713;42.676;23.352;2022-09-09T14:20:03;94723.19;;;29.95;41.00
56831;BME280;42713;42.676;23.352;2022-09-09T14:22:31;94735.06;;;29.90;41.09
56831;BME280;42713;42.676;23.352;2022-09-09T14:24:56;94724.53;;;29.78;41.74
56831;BME280;42713;42.676;23.352;2022-09-09T14:27:23;94718.66;;;29.72;41.01
56831;BME280;42713;42.676;23.352;2022-09-09T14:29:48;94714.50;;;29.78;40.72
56831;BME280;42713;42.676;23.352;2022-09-09T14:32:13;94719.84;;;29.75;39.39
56831;BME280;42713;42.676;23.352;2022-09-09T14:34:39;94730.09;;;29.62;39.70
56831;BME280;42713;42.676;23.352;2022-09-09T14:37:09;94722.88;;;29.43;39.49
56831;BME280;42713;42.676;23.352;2022-09-09T14:39:41;94707.91;;;29.22;40.56
56831;BME280;42713;42.676;23.352;2022-09-09T14:42:11;94712.78;;;29.13;40.44
56831;BME280;42713;42.676;23.352;2022-09-09T14:44:38;94717.28;;;29.05;41.18
56831;BME280;42713;42.676;23.352;2022-09-09T14:47:05;94716.34;;;28.94;41.09
56831;BME280;42713;42.676;23.352;2022-09-09T14:49:30;94714.59;;;28.82;41.70
56831;BME280;42713;42.676;23.352;2022-09-09T14:51:56;94717.13;;;28.71;41.57
56831;BME280;42713;42.676;23.352;2022-09-09T14:54:22;94717.69;;;28.61;41.46
56831;BME280;42713;42.676;23.352;2022-09-09T14:59:21;94705.22;;;28.29;42.34
56831;BME280;42713;42.676;23.352;2022-09-09T15:01:47;94711.94;;;28.19;42.12
56831;BME280;42713;42.676;23.352;2022-09-09T15:04:13;94723.97;;;28.06;42.85
56831;BME280;42713;42.676;23.352;2022-09-09T15:06:45;94731.75;;;27.91;42.85
56831;BME280;42713;42.676;23.352;2022-09-09T15:09:13;94728.50;;;27.82;42.32
56831;BME280;42713;42.676;23.352;2022-09-09T15:11:39;94736.34;;;27.71;42.80
56831;BME280;42713;42.676;23.352;2022-09-09T15:14:06;94737.66;;;27.61;43.64
56831;BME280;42713;42.676;23.352;2022-09-09T15:16:32;94737.16;;;27.56;43.47
56831;BME280;42713;42.676;23.352;2022-09-09T15:18:59;94734.84;;;27.54;43.62
56831;BME280;42713;42.676;23.352;2022-09-09T15:21:28;94738.47;;;27.62;43.18
56831;BME280;42713;42.676;23.352;2022-09-09T15:23:54;94733.38;;;27.96;42.67
56831;BME280;42713;42.676;23.352;2022-09-09T15:26:20;94733.22;;;28.24;42.90
56831;BME280;42713;42.676;23.352;2022-09-09T15:28:47;94737.97;;;28.31;42.89
56831;BME280;42713;42.676;23.352;2022-09-09T15:31:26;94730.78;;;28.62;42.43